createdAt,value
2022-11-21T00:01:00.831Z,76824.66
2022-11-21T00:03:28.637Z,76814.06
2022-11-21T00:05:57.631Z,76805.59
2022-11-21T00:08:25.268Z,76795.00
2022-11-21T00:10:53.133Z,76786.53
2022-11-21T00:13:21.719Z,76790.78
2022-11-21T00:15:49.372Z,76788.66
2022-11-21T00:18:17.099Z,76786.53
2022-11-21T00:20:45.541Z,76790.78
2022-11-21T00:23:14.672Z,76778.06
2022-11-21T00:25:42.330Z,76782.31
2022-11-21T00:28:10.043Z,76780.19
2022-11-21T00:30:37.777Z,76767.50
2022-11-21T00:33:05.521Z,76782.31
2022-11-21T00:35:33.161Z,76769.63
2022-11-21T00:38:00.798Z,76782.31
2022-11-21T00:40:29.788Z,76773.84
2022-11-21T00:42:57.513Z,76769.63
2022-11-21T00:45:25.476Z,76761.16
2022-11-21T00:47:53.060Z,76748.44
2022-11-21T00:50:20.875Z,76731.50
2022-11-21T00:52:48.463Z,76731.50
2022-11-21T00:55:16.226Z,76727.28
2022-11-21T00:57:45.276Z,76712.47
2022-11-21T01:00:14.416Z,76727.28
2022-11-21T01:02:42.047Z,76714.56
2022-11-21T01:05:10.485Z,76701.88
2022-11-21T01:07:38.120Z,76701.88
2022-11-21T01:10:06.978Z,76704.00
2022-11-21T01:12:34.735Z,76701.88
2022-11-21T01:15:03.794Z,76720.94
2022-11-21T01:17:33.280Z,76727.28
2022-11-21T01:20:01.044Z,76742.09
2022-11-21T01:22:28.652Z,76750.56
2022-11-21T01:24:56.269Z,76748.44
2022-11-21T01:27:24.114Z,76756.91
2022-11-21T01:29:52.518Z,76752.69
2022-11-21T01:32:21.550Z,76759.03
2022-11-21T01:34:49.179Z,76765.38
2022-11-21T01:37:16.866Z,76754.78
2022-11-21T01:39:44.618Z,76744.22
2022-11-21T01:42:13.596Z,76752.69
2022-11-21T01:44:50.270Z,76759.03
2022-11-21T01:47:17.946Z,76778.06
2022-11-21T01:49:47.384Z,76765.38
2022-11-21T01:52:18.504Z,76756.91
2022-11-21T01:54:48.845Z,76744.22
2022-11-21T01:57:19.019Z,76744.22
2022-11-21T01:59:49.575Z,76752.69
2022-11-21T02:02:19.007Z,76759.03
2022-11-21T02:04:48.201Z,76790.78
2022-11-21T02:07:17.429Z,76816.19
2022-11-21T02:09:46.855Z,76820.41
2022-11-21T02:12:17.201Z,76828.88
2022-11-21T02:14:45.394Z,76837.34
2022-11-21T02:17:13.210Z,76856.41
2022-11-21T02:19:46.022Z,76850.06
2022-11-21T02:22:20.945Z,76854.28
2022-11-21T02:24:58.809Z,76845.81
2022-11-21T02:27:26.453Z,76843.69
2022-11-21T02:29:54.113Z,76843.69
2022-11-21T02:32:23.047Z,76847.94
2022-11-21T02:34:50.666Z,76854.28
2022-11-21T02:37:19.228Z,76854.28
2022-11-21T02:39:47.688Z,76867.00
2022-11-21T02:42:22.941Z,76854.28
2022-11-21T02:44:55.100Z,76850.06
2022-11-21T02:47:23.522Z,76837.34
2022-11-21T02:49:56.886Z,76831.00
2022-11-21T02:52:24.763Z,76824.66
2022-11-21T02:54:52.386Z,76816.19
2022-11-21T02:57:21.397Z,76837.34
2022-11-21T02:59:48.998Z,76867.00
2022-11-21T03:02:16.632Z,76905.09
2022-11-21T03:04:45.096Z,76909.34
2022-11-21T03:07:12.781Z,76907.22
2022-11-21T03:09:40.425Z,76900.88
2022-11-21T03:12:08.676Z,76892.41
2022-11-21T03:14:38.120Z,76890.28
2022-11-21T03:17:05.995Z,76890.28
2022-11-21T03:19:33.746Z,76907.22
2022-11-21T03:22:01.441Z,76909.34
2022-11-21T03:24:29.304Z,76911.44
2022-11-21T03:26:57.216Z,76905.09
2022-11-21T03:29:24.944Z,76911.44
2022-11-21T03:31:53.966Z,76911.44
2022-11-21T03:34:21.633Z,76900.88
2022-11-21T03:36:49.401Z,76892.41
2022-11-21T03:39:17.025Z,76894.50
2022-11-21T03:41:44.654Z,76888.16
2022-11-21T03:44:13.297Z,76900.88
2022-11-21T03:46:42.797Z,76930.50
2022-11-21T03:49:12.544Z,76953.78
2022-11-21T03:51:40.755Z,76960.13
2022-11-21T03:54:08.801Z,76970.72
2022-11-21T03:56:36.745Z,76960.13
2022-11-21T03:59:04.641Z,76958.03
2022-11-21T04:01:36.375Z,76968.59
2022-11-21T04:04:04.742Z,76949.56
2022-11-21T04:06:34.062Z,76949.56
2022-11-21T04:09:01.713Z,76951.66
2022-11-21T04:11:29.276Z,76966.50
2022-11-21T04:13:56.937Z,76985.53
2022-11-21T04:16:24.633Z,76985.53
2022-11-21T04:18:52.247Z,76972.84
2022-11-21T04:21:19.846Z,76968.59
2022-11-21T04:23:48.880Z,76972.84
2022-11-21T04:26:16.510Z,76996.13
2022-11-21T04:28:44.089Z,77010.94
2022-11-21T04:31:13.430Z,77017.28
2022-11-21T04:33:41.157Z,77002.47
2022-11-21T04:36:09.468Z,76985.53
2022-11-21T04:38:37.268Z,76983.44
2022-11-21T04:41:06.327Z,76989.78
2022-11-21T04:43:33.916Z,76985.53
2022-11-21T04:46:01.553Z,76989.78
2022-11-21T04:48:29.306Z,76996.13
2022-11-21T04:50:56.902Z,77010.94
2022-11-21T04:53:24.671Z,77008.81
2022-11-21T04:55:52.280Z,77019.41
2022-11-21T04:58:21.409Z,77021.53
2022-11-21T05:00:50.447Z,77019.41
2022-11-21T05:03:18.099Z,77034.22
2022-11-21T05:05:45.737Z,77019.41
2022-11-21T05:08:13.553Z,77013.06
2022-11-21T05:10:55.244Z,77034.22
2022-11-21T05:13:24.314Z,77034.22
2022-11-21T05:15:57.991Z,77032.13
2022-11-21T05:18:25.776Z,77030.00
2022-11-21T05:20:53.372Z,77036.34
2022-11-21T05:23:21.314Z,77057.53
2022-11-21T05:25:48.888Z,77066.00
2022-11-21T05:28:16.644Z,77051.16
2022-11-21T05:30:45.769Z,77042.69
2022-11-21T05:33:13.486Z,77036.34
2022-11-21T05:35:43.400Z,77046.94
2022-11-21T05:38:11.652Z,77044.81
2022-11-21T05:40:39.735Z,77044.81
2022-11-21T05:43:25.132Z,77044.81
2022-11-21T05:45:54.128Z,77049.06
2022-11-21T05:48:21.717Z,77040.59
2022-11-21T05:50:50.458Z,77032.13
2022-11-21T05:53:18.373Z,77036.34
2022-11-21T05:55:46.519Z,77034.22
2022-11-21T05:58:14.397Z,77023.66
2022-11-21T06:00:42.078Z,77023.66
2022-11-21T06:03:28.959Z,77027.88
2022-11-21T06:06:03.620Z,77027.88
2022-11-21T06:08:32.924Z,77017.28
2022-11-21T06:11:00.872Z,77017.28
2022-11-21T06:13:29.565Z,77025.75
2022-11-21T06:16:01.134Z,77036.34
2022-11-21T06:18:32.782Z,77019.41
2022-11-21T06:21:04.381Z,77013.06
2022-11-21T06:23:32.568Z,77002.47
2022-11-21T06:26:01.116Z,76998.25
2022-11-21T06:28:31.687Z,77006.72
2022-11-21T06:31:03.834Z,77002.47
2022-11-21T06:33:33.199Z,76998.25
2022-11-21T06:36:03.040Z,76994.00
2022-11-21T06:38:31.472Z,76979.19
2022-11-21T06:40:59.195Z,76987.66
2022-11-21T06:43:26.809Z,76970.72
2022-11-21T06:45:56.869Z,76968.59
2022-11-21T06:48:24.632Z,76979.19
2022-11-21T06:50:53.654Z,76977.06
2022-11-21T06:53:21.273Z,76977.06
2022-11-21T06:55:48.996Z,76964.38
2022-11-21T06:58:16.617Z,76947.44
2022-11-21T07:00:44.470Z,76922.03
2022-11-21T07:03:12.246Z,76913.56
2022-11-21T07:05:39.837Z,76883.94
2022-11-21T07:08:13.163Z,76841.59
2022-11-21T07:10:57.219Z,76629.91
2022-11-21T07:13:29.836Z,76414.00
2022-11-21T07:16:03.056Z,76289.09
2022-11-21T07:18:30.825Z,76229.84
2022-11-21T07:20:59.539Z,76140.94
2022-11-21T07:23:28.946Z,76056.28
2022-11-21T07:25:56.626Z,76016.06
2022-11-21T07:28:24.382Z,76037.22
2022-11-21T07:30:52.195Z,75999.13
2022-11-21T07:33:19.810Z,75950.44
2022-11-21T07:35:47.707Z,75929.28
2022-11-21T07:38:15.543Z,75939.88
2022-11-21T07:40:46.074Z,75893.31
2022-11-21T07:43:13.734Z,75903.91
2022-11-21T07:45:41.563Z,75914.47
2022-11-21T07:48:09.450Z,76062.63
2022-11-21T07:50:37.173Z,76088.03
2022-11-21T07:53:06.329Z,75889.06
2022-11-21T07:55:40.230Z,75749.41
2022-11-21T07:58:11.400Z,75690.13
2022-11-21T08:00:40.390Z,75550.47
2022-11-21T08:03:08.299Z,75630.88
2022-11-21T08:05:38.691Z,75586.44
2022-11-21T08:08:06.792Z,75605.50
2022-11-21T08:10:45.959Z,75402.31
2022-11-21T08:13:15.440Z,75404.44
2022-11-21T08:15:43.156Z,75271.13
2022-11-21T08:18:11.526Z,75305.00
2022-11-21T08:20:39.246Z,75150.50
2022-11-21T08:23:07.541Z,75228.81
2022-11-21T08:25:35.689Z,75173.78
2022-11-21T08:28:03.769Z,75235.16
2022-11-21T08:30:33.237Z,75209.75
2022-11-21T08:33:01.351Z,75220.34
2022-11-21T08:35:46.531Z,75178.03
2022-11-21T08:38:14.473Z,75199.19
2022-11-21T08:40:42.120Z,75133.59
2022-11-21T08:43:10.659Z,75097.59
2022-11-21T08:45:40.321Z,75044.72
2022-11-21T08:48:11.575Z,74924.09
2022-11-21T08:50:39.572Z,75099.72
2022-11-21T08:53:08.471Z,75006.63
2022-11-21T08:55:36.284Z,75063.75
2022-11-21T08:58:03.979Z,75046.81
2022-11-21T09:00:31.916Z,75194.94
2022-11-21T09:03:05.299Z,75209.75
2022-11-21T09:05:34.277Z,75051.06
2022-11-21T09:08:01.903Z,74900.81
2022-11-21T09:10:29.970Z,75051.06
2022-11-21T09:12:58.906Z,75127.22
2022-11-21T09:15:43.987Z,75133.59
2022-11-21T09:18:13.579Z,74962.19
2022-11-21T09:20:43.021Z,74966.41
2022-11-21T09:23:12.536Z,75089.16
2022-11-21T09:25:40.545Z,74915.63
2022-11-21T09:28:09.182Z,74924.09
2022-11-21T09:30:42.520Z,74977.00
2022-11-21T09:33:13.965Z,75076.44
2022-11-21T09:35:41.803Z,74921.97
2022-11-21T09:42:40.752Z,75070.09
2022-11-21T09:45:10.837Z,75292.28
2022-11-21T09:47:41.656Z,75309.22
2022-11-21T09:50:24.090Z,75131.47
2022-11-21T09:56:43.625Z,75389.63
2022-11-21T09:59:24.175Z,75438.31
2022-11-21T10:01:52.681Z,75330.38
2022-11-21T10:04:20.518Z,75163.22
2022-11-21T10:06:59.799Z,75305.00
2022-11-21T10:09:36.185Z,75601.25
2022-11-21T10:12:26.263Z,75668.97
2022-11-21T10:15:06.554Z,75569.50
2022-11-21T10:17:41.849Z,75370.59
2022-11-21T10:20:27.350Z,75271.13
2022-11-21T10:23:09.831Z,75357.88
2022-11-21T10:25:38.668Z,75360.00
2022-11-21T10:28:11.163Z,75288.06
2022-11-21T10:30:43.423Z,75360.00
2022-11-21T10:33:13.313Z,75415.03
2022-11-21T10:35:43.006Z,75307.09
2022-11-21T10:38:20.875Z,75152.63
2022-11-21T10:40:50.554Z,75161.09
2022-11-21T10:43:45.337Z,75307.09
2022-11-21T10:46:13.276Z,75379.06
2022-11-21T10:48:40.882Z,75427.72
2022-11-21T10:51:26.579Z,75332.50
2022-11-21T10:54:24.444Z,75421.38
2022-11-21T10:56:53.398Z,75328.25
2022-11-21T10:59:29.798Z,75330.38
2022-11-21T11:02:00.832Z,75321.91
2022-11-21T11:04:33.507Z,75302.88
2022-11-21T11:07:22.352Z,75262.66
2022-11-21T11:09:52.544Z,75241.50
2022-11-21T11:12:50.767Z,75273.25
2022-11-21T11:15:20.577Z,75290.16
2022-11-21T11:17:52.121Z,75169.56
2022-11-21T11:20:37.800Z,75243.63
2022-11-21T11:23:38.372Z,75326.16
2022-11-21T11:26:21.305Z,75467.94
2022-11-21T11:28:49.090Z,75440.41
2022-11-21T11:31:16.751Z,75491.22
2022-11-21T11:33:51.762Z,75353.66
2022-11-21T11:36:28.973Z,75249.97
2022-11-21T11:38:58.368Z,75233.03
2022-11-21T11:41:58.902Z,75186.47
2022-11-21T11:44:49.822Z,75112.41
2022-11-21T11:47:32.421Z,75082.81
2022-11-21T11:50:13.353Z,75089.16
2022-11-21T11:52:45.529Z,75006.63
2022-11-21T11:55:16.858Z,75101.84
2022-11-21T11:57:47.019Z,75133.59
2022-11-21T12:00:39.237Z,75368.47
2022-11-21T12:03:13.828Z,75531.41
2022-11-21T12:05:53.310Z,75561.03
2022-11-21T12:08:41.887Z,75647.81
2022-11-21T12:11:37.795Z,75425.59
2022-11-21T12:14:13.468Z,75569.50
2022-11-21T12:16:42.586Z,75499.66
2022-11-21T12:19:14.087Z,75548.34
2022-11-21T12:21:41.894Z,75501.78
2022-11-21T12:24:11.100Z,75512.38
2022-11-21T12:26:49.554Z,75457.34
2022-11-21T12:29:33.074Z,75389.63
2022-11-21T12:32:10.303Z,75398.09
2022-11-21T12:35:02.275Z,75343.06
2022-11-21T12:37:37.279Z,75290.16
2022-11-21T12:40:22.292Z,75269.00
2022-11-21T12:43:00.426Z,75338.84
2022-11-21T12:45:32.449Z,75381.16
2022-11-21T12:48:31.287Z,75467.94
2022-11-21T12:51:51.271Z,75512.38
2022-11-21T12:54:53.817Z,75427.72
2022-11-21T12:57:22.774Z,75393.88
2022-11-21T13:00:02.042Z,75391.75
2022-11-21T13:02:54.857Z,75412.91
2022-11-21T13:05:26.653Z,75364.25
2022-11-21T13:07:56.518Z,75402.31
2022-11-21T13:10:24.259Z,75542.00
2022-11-21T13:12:58.652Z,75630.88
2022-11-21T13:15:31.803Z,75635.13
2022-11-21T13:18:13.915Z,75635.13
2022-11-21T13:20:48.080Z,75658.41
2022-11-21T13:23:35.635Z,75711.31
2022-11-21T13:26:03.555Z,75724.00
2022-11-21T13:28:37.574Z,75762.09
2022-11-21T13:31:28.802Z,75757.88
2022-11-21T13:33:57.906Z,75753.63
2022-11-21T13:36:52.845Z,75768.44
2022-11-21T13:39:30.425Z,75789.59
2022-11-21T13:42:26.420Z,75791.72
2022-11-21T13:44:54.465Z,75772.69
2022-11-21T13:47:46.172Z,75781.13
2022-11-21T13:50:23.532Z,75787.50
2022-11-21T13:53:00.075Z,75791.72
2022-11-21T13:55:47.142Z,75787.50
2022-11-21T13:58:29.848Z,75795.97
2022-11-21T14:01:18.367Z,75812.88
2022-11-21T14:04:18.186Z,75838.28
2022-11-21T14:06:48.452Z,75842.53
2022-11-21T14:09:27.602Z,75850.97
2022-11-21T14:12:00.782Z,75857.34
2022-11-21T14:14:35.674Z,75884.84
2022-11-21T14:17:23.377Z,75914.47
2022-11-21T14:19:52.521Z,75952.56
2022-11-21T14:22:35.022Z,75973.75
2022-11-21T14:25:15.261Z,75969.50
2022-11-21T14:27:47.272Z,75973.75
2022-11-21T14:30:36.149Z,75988.56
2022-11-21T14:33:32.975Z,75977.97
2022-11-21T14:36:04.048Z,76001.25
2022-11-21T14:38:36.657Z,76005.47
2022-11-21T14:41:31.394Z,76020.31
2022-11-21T14:44:22.726Z,76030.88
2022-11-21T14:46:51.929Z,76052.03
2022-11-21T14:49:26.453Z,76047.81
2022-11-21T14:52:00.221Z,76058.41
2022-11-21T14:54:31.875Z,76049.94
2022-11-21T14:57:01.474Z,76052.03
2022-11-21T14:59:32.388Z,76060.50
2022-11-21T15:02:02.738Z,76062.63
2022-11-21T15:04:35.577Z,76064.75
2022-11-21T15:07:03.906Z,76075.31
2022-11-21T15:12:26.232Z,76066.88
2022-11-21T15:14:57.834Z,76064.75
2022-11-21T15:17:26.442Z,76088.03
2022-11-21T15:20:18.206Z,76092.25
2022-11-21T15:22:48.112Z,76096.50
2022-11-21T15:25:19.552Z,76090.16
2022-11-21T15:27:47.556Z,76104.97
2022-11-21T15:30:26.705Z,76126.13
2022-11-21T15:33:05.435Z,76119.78
2022-11-21T15:35:51.181Z,76117.66
2022-11-21T15:38:26.439Z,76143.06
2022-11-21T15:41:01.436Z,76136.72
2022-11-21T15:43:37.309Z,76126.13
2022-11-21T15:46:05.899Z,76130.34
2022-11-21T15:48:33.560Z,76140.94
2022-11-21T15:51:01.663Z,76145.19
2022-11-21T15:53:29.371Z,76149.41
2022-11-21T15:55:57.228Z,76160.00
2022-11-21T15:58:26.383Z,76183.28
2022-11-21T16:00:54.026Z,76198.09
2022-11-21T16:03:22.238Z,76189.63
2022-11-21T16:05:49.897Z,76206.56
2022-11-21T16:08:17.557Z,76202.31
2022-11-21T16:10:45.934Z,76189.63
2022-11-21T16:13:13.750Z,76183.28
2022-11-21T16:15:43.707Z,76198.09
2022-11-21T16:18:11.595Z,76193.84
2022-11-21T16:20:39.959Z,76185.38
2022-11-21T16:23:07.740Z,76181.16
2022-11-21T16:25:35.389Z,76179.03
2022-11-21T16:28:07.141Z,76181.16
2022-11-21T16:30:35.486Z,76183.28
2022-11-21T16:33:05.732Z,76198.09
2022-11-21T16:35:33.593Z,76221.38
2022-11-21T16:38:01.610Z,76212.91
2022-11-21T16:40:29.646Z,76219.25
2022-11-21T16:43:09.134Z,76242.53
2022-11-21T16:45:38.419Z,76227.72
2022-11-21T16:48:08.003Z,76210.78
2022-11-21T16:50:35.682Z,76210.78
2022-11-21T16:53:04.301Z,76223.50
2022-11-21T16:55:31.918Z,76225.59
2022-11-21T16:57:59.834Z,76210.78
2022-11-21T17:00:27.921Z,76210.78
2022-11-21T17:02:56.958Z,76210.78
2022-11-21T17:05:34.220Z,76219.25
2022-11-21T17:08:02.109Z,76236.19
2022-11-21T17:10:33.769Z,76231.97
2022-11-21T17:13:02.045Z,76229.84
2022-11-21T17:15:29.921Z,76234.06
2022-11-21T17:18:01.678Z,76240.41
2022-11-21T17:20:30.634Z,76248.88
2022-11-21T17:22:58.264Z,76231.97
2022-11-21T17:25:27.070Z,76238.31
2022-11-21T17:27:55.708Z,76225.59
2022-11-21T17:30:37.410Z,76238.31
2022-11-21T17:33:07.352Z,76244.66
2022-11-21T17:35:37.869Z,76238.31
2022-11-21T17:38:05.485Z,76255.25
2022-11-21T17:40:33.210Z,76261.59
2022-11-21T17:43:01.711Z,76261.59
2022-11-21T17:45:29.572Z,76240.41
2022-11-21T17:47:57.792Z,76234.06
2022-11-21T17:50:26.799Z,76234.06
2022-11-21T17:53:12.441Z,76223.50
2022-11-21T17:55:42.254Z,76219.25
2022-11-21T17:58:14.920Z,76200.22
2022-11-21T18:00:43.820Z,76198.09
2022-11-21T18:03:12.417Z,76206.56
2022-11-21T18:05:40.068Z,76210.78
2022-11-21T18:08:08.042Z,76210.78
2022-11-21T18:10:45.143Z,76223.50
2022-11-21T18:13:13.129Z,76219.25
2022-11-21T18:15:40.916Z,76215.03
2022-11-21T18:18:08.541Z,76212.91
2022-11-21T18:20:41.165Z,76210.78
2022-11-21T18:23:08.780Z,76212.91
2022-11-21T18:25:38.253Z,76229.84
2022-11-21T18:28:07.361Z,76240.41
2022-11-21T18:30:35.253Z,76231.97
2022-11-21T18:33:06.792Z,76227.72
2022-11-21T18:35:38.712Z,76227.72
2022-11-21T18:38:06.448Z,76227.72
2022-11-21T18:40:34.539Z,76219.25
2022-11-21T18:43:05.642Z,76223.50
2022-11-21T18:45:33.301Z,76223.50
2022-11-21T18:48:01.152Z,76229.84
2022-11-21T18:50:33.352Z,76225.59
2022-11-21T18:53:00.995Z,76223.50
2022-11-21T18:55:31.363Z,76219.25
2022-11-21T18:58:02.714Z,76219.25
2022-11-21T19:00:31.839Z,76215.03
2022-11-21T19:02:59.699Z,76215.03
2022-11-21T19:05:28.480Z,76210.78
2022-11-21T19:07:56.329Z,76210.78
2022-11-21T19:13:12.316Z,76210.78
2022-11-21T19:15:42.850Z,76215.03
2022-11-21T19:18:11.192Z,76202.31
2022-11-21T19:20:45.289Z,76195.97
2022-11-21T19:23:12.996Z,76193.84
2022-11-21T19:25:40.708Z,76185.38
2022-11-21T19:28:11.447Z,76176.94
2022-11-21T19:30:39.106Z,76172.69
2022-11-21T19:33:08.998Z,76181.16
2022-11-21T19:35:39.028Z,76185.38
2022-11-21T19:38:07.007Z,76193.84
2022-11-21T19:40:57.404Z,76193.84
2022-11-21T19:43:25.063Z,76193.84
2022-11-21T19:45:57.865Z,76202.31
2022-11-21T19:48:30.341Z,76204.44
2022-11-21T19:50:58.739Z,76195.97
2022-11-21T19:53:26.826Z,76193.84
2022-11-21T19:55:58.824Z,76198.09
2022-11-21T19:58:27.474Z,76183.28
2022-11-21T20:00:55.554Z,76183.28
2022-11-21T20:03:24.110Z,76179.03
2022-11-21T20:05:53.317Z,76176.94
2022-11-21T20:08:20.977Z,76174.81
2022-11-21T20:10:49.646Z,76200.22
2022-11-21T20:13:17.285Z,76187.50
2022-11-21T20:15:44.892Z,76179.03
2022-11-21T20:18:12.833Z,76193.84
2022-11-21T20:20:40.690Z,76185.38
2022-11-21T20:23:10.099Z,76183.28
2022-11-21T20:25:38.076Z,76181.16
2022-11-21T20:28:11.867Z,76172.69
2022-11-21T20:30:39.607Z,76174.81
2022-11-21T20:33:11.332Z,76174.81
2022-11-21T20:35:40.898Z,76168.47
2022-11-21T20:38:12.214Z,76162.09
2022-11-21T20:40:45.230Z,76151.53
2022-11-21T20:43:16.887Z,76164.22
2022-11-21T20:46:08.727Z,76185.38
2022-11-21T20:48:36.572Z,76212.91
2022-11-21T20:52:15.763Z,76215.03
2022-11-21T20:54:00.019Z,76210.78
2022-11-21T20:56:33.880Z,76223.50
2022-11-21T20:59:01.745Z,76223.50
2022-11-21T21:01:32.033Z,76225.59
2022-11-21T21:03:59.690Z,76225.59
2022-11-21T21:06:27.340Z,76223.50
2022-11-21T21:08:56.545Z,76231.97
2022-11-21T21:14:13.347Z,76253.13
2022-11-21T21:16:41.040Z,76251.00
2022-11-21T21:19:10.771Z,76267.94
2022-11-21T21:21:40.109Z,76265.81
2022-11-21T21:24:11.724Z,76253.13
2022-11-21T21:26:43.028Z,76253.13
2022-11-21T21:29:11.531Z,76248.88
2022-11-21T21:31:40.837Z,76244.66
2022-11-21T21:34:10.885Z,76246.78
2022-11-21T21:36:38.505Z,76240.41
2022-11-21T21:39:06.525Z,76229.84
2022-11-21T21:41:40.010Z,76217.13
2022-11-21T21:44:07.941Z,76219.25
2022-11-21T21:46:35.671Z,76229.84
2022-11-21T21:49:03.655Z,76225.59
2022-11-21T21:51:32.198Z,76223.50
2022-11-21T21:54:00.609Z,76227.72
2022-11-21T21:56:29.467Z,76234.06
2022-11-21T21:58:59.408Z,76242.53
2022-11-21T22:01:28.586Z,76231.97
2022-11-21T22:03:58.381Z,76219.25
2022-11-21T22:06:26.410Z,76221.38
2022-11-21T22:08:55.017Z,76223.50
2022-11-21T22:11:24.709Z,76219.25
2022-11-21T22:13:54.445Z,76215.03
2022-11-21T22:16:23.938Z,76202.31
2022-11-21T22:18:52.132Z,76185.38
2022-11-21T22:21:20.941Z,76181.16
2022-11-21T22:26:36.630Z,76179.03
2022-11-21T22:29:04.434Z,76181.16
2022-11-21T22:31:34.000Z,76181.16
2022-11-21T22:34:01.976Z,76172.69
2022-11-21T22:36:29.653Z,76179.03
2022-11-21T22:38:57.783Z,76193.84
2022-11-21T22:41:27.020Z,76198.09
2022-11-21T22:43:56.017Z,76200.22
2022-11-21T22:46:24.252Z,76202.31
2022-11-21T22:48:53.397Z,76191.75
2022-11-21T22:51:23.425Z,76185.38
2022-11-21T22:53:51.728Z,76185.38
2022-11-21T22:56:21.170Z,76185.38
2022-11-21T22:58:50.527Z,76183.28
2022-11-21T23:01:20.319Z,76176.94
2022-11-21T23:03:49.143Z,76181.16
2022-11-21T23:06:19.419Z,76181.16
2022-11-21T23:08:47.410Z,76176.94
2022-11-21T23:11:17.066Z,76170.56
2022-11-21T23:13:46.221Z,76166.34
2022-11-21T23:16:14.336Z,76168.47
2022-11-21T23:18:42.419Z,76155.75
2022-11-21T23:21:10.638Z,76153.63
2022-11-21T23:23:39.933Z,76153.63
2022-11-21T23:26:07.755Z,76153.63
2022-11-21T23:28:35.430Z,76149.41
2022-11-21T23:31:03.132Z,76140.94
2022-11-21T23:33:30.884Z,76149.41
2022-11-21T23:35:58.524Z,76160.00
2022-11-21T23:38:26.537Z,76160.00
2022-11-21T23:40:56.075Z,76160.00
2022-11-21T23:43:23.929Z,76155.75
2022-11-21T23:45:51.974Z,76143.06
2022-11-21T23:48:20.070Z,76128.25
2022-11-21T23:50:48.190Z,76121.91
2022-11-21T23:53:15.878Z,76126.13
2022-11-21T23:55:44.034Z,76121.91
2022-11-21T23:58:13.642Z,76113.44
